createdAt,value
2023-01-02T00:01:23.354Z,2.70
2023-01-02T00:03:54.083Z,2.60
2023-01-02T00:06:22.306Z,2.60
2023-01-02T00:08:50.104Z,2.60
2023-01-02T00:11:17.617Z,2.70
2023-01-02T00:13:45.225Z,2.50
2023-01-02T00:16:12.801Z,2.50
2023-01-02T00:18:40.482Z,2.60
2023-01-02T00:21:09.745Z,2.50
2023-01-02T00:23:37.328Z,2.50
2023-01-02T00:26:07.826Z,2.50
2023-01-02T00:28:37.279Z,2.50
2023-01-02T00:31:12.909Z,2.60
2023-01-02T00:33:40.950Z,2.50
2023-01-02T00:36:11.304Z,2.40
2023-01-02T00:38:39.906Z,2.50
2023-01-02T00:41:07.855Z,2.60
2023-01-02T00:43:35.890Z,2.50
2023-01-02T00:46:09.241Z,2.40
2023-01-02T00:48:39.563Z,2.50
2023-01-02T00:51:07.499Z,2.40
2023-01-02T00:53:35.863Z,2.30
2023-01-02T00:56:03.564Z,2.30
2023-01-02T00:58:31.091Z,2.20
2023-01-02T01:00:58.601Z,2.40
2023-01-02T01:03:26.262Z,2.30
2023-01-02T01:05:53.759Z,2.20
2023-01-02T01:08:21.381Z,2.20
2023-01-02T01:10:48.828Z,2.00
2023-01-02T01:13:16.383Z,2.10
2023-01-02T01:15:44.612Z,2.10
2023-01-02T01:18:12.220Z,2.10
2023-01-02T01:20:39.833Z,2.10
2023-01-02T01:23:07.632Z,2.10
2023-01-02T01:25:37.309Z,1.90
2023-01-02T01:28:04.813Z,1.90
2023-01-02T01:30:32.316Z,2.10
2023-01-02T01:32:59.801Z,2.00
2023-01-02T01:35:27.284Z,2.00
2023-01-02T01:37:54.800Z,1.90
2023-01-02T01:40:22.458Z,1.90
2023-01-02T01:42:50.469Z,2.00
2023-01-02T01:45:18.942Z,2.00
2023-01-02T01:48:00.155Z,1.90
2023-01-02T01:50:36.325Z,1.90
2023-01-02T01:53:10.043Z,1.90
2023-01-02T01:55:50.623Z,1.80
2023-01-02T01:58:24.889Z,1.80
2023-01-02T02:00:52.748Z,2.00
2023-01-02T02:03:24.495Z,1.90
2023-01-02T02:05:52.348Z,1.90
2023-01-02T02:08:25.212Z,1.70
2023-01-02T02:10:54.937Z,1.70
2023-01-02T02:13:23.129Z,1.60
2023-01-02T02:16:09.000Z,1.50
2023-01-02T02:19:07.339Z,1.60
2023-01-02T02:22:12.683Z,1.60
2023-01-02T02:24:58.447Z,1.50
2023-01-02T02:27:37.531Z,1.40
2023-01-02T02:30:17.451Z,1.60
2023-01-02T02:32:54.493Z,1.50
2023-01-02T02:35:49.239Z,1.60
2023-01-02T02:38:32.464Z,1.50
2023-01-02T02:41:29.339Z,1.60
2023-01-02T02:44:17.880Z,1.70
2023-01-02T02:47:04.691Z,2.00
2023-01-02T02:49:49.997Z,2.00
2023-01-02T02:52:27.679Z,2.20
2023-01-02T02:54:55.221Z,2.10
2023-01-02T02:57:24.708Z,2.20
2023-01-02T02:59:53.018Z,2.40
2023-01-02T03:02:21.208Z,2.30
2023-01-02T03:04:53.172Z,2.30
2023-01-02T03:07:35.832Z,2.40
2023-01-02T03:10:09.214Z,2.40
2023-01-02T03:12:42.567Z,2.40
2023-01-02T03:15:32.423Z,2.60
2023-01-02T03:18:10.820Z,2.60
2023-01-02T03:20:42.896Z,2.60
2023-01-02T03:23:23.676Z,2.70
2023-01-02T03:25:52.309Z,2.70
2023-01-02T03:28:22.739Z,2.70
2023-01-02T03:30:56.555Z,2.60
2023-01-02T03:33:31.630Z,2.70
2023-01-02T03:36:08.279Z,2.80
2023-01-02T03:38:50.292Z,2.70
2023-01-02T03:41:23.028Z,2.70
2023-01-02T03:43:56.763Z,2.80
2023-01-02T03:46:41.087Z,2.70
2023-01-02T03:49:19.961Z,2.70
2023-01-02T03:51:47.769Z,2.70
2023-01-02T03:54:16.723Z,2.70
2023-01-02T03:57:09.158Z,2.70
2023-01-02T03:59:48.839Z,2.60
2023-01-02T04:02:37.017Z,2.70
2023-01-02T04:05:18.382Z,2.60
2023-01-02T04:07:57.704Z,2.60
2023-01-02T04:10:27.315Z,2.60
2023-01-02T04:13:00.041Z,2.50
2023-01-02T04:15:33.402Z,2.50
2023-01-02T04:18:05.960Z,2.50
2023-01-02T04:20:38.328Z,2.30
2023-01-02T04:23:16.133Z,2.20
2023-01-02T04:26:01.475Z,2.30
2023-01-02T04:28:31.928Z,2.20
2023-01-02T04:31:16.911Z,2.10
2023-01-02T04:33:48.549Z,2.10
2023-01-02T04:36:16.744Z,2.00
2023-01-02T04:38:45.604Z,2.20
2023-01-02T04:41:18.165Z,2.30
2023-01-02T04:43:45.666Z,2.30
2023-01-02T04:46:14.545Z,2.30
2023-01-02T04:48:42.168Z,2.30
2023-01-02T04:51:09.983Z,2.30
2023-01-02T04:53:37.602Z,2.20
2023-01-02T04:56:05.567Z,2.20
2023-01-02T04:58:33.239Z,2.20
2023-01-02T05:01:00.797Z,2.20
2023-01-02T05:03:28.536Z,2.20
2023-01-02T05:06:02.390Z,2.20
2023-01-02T05:08:30.229Z,2.20
2023-01-02T05:10:58.610Z,2.30
2023-01-02T05:13:26.124Z,2.10
2023-01-02T05:15:57.500Z,2.20
2023-01-02T05:18:25.036Z,2.20
2023-01-02T05:20:52.493Z,2.20
2023-01-02T05:23:38.532Z,2.10
2023-01-02T05:26:11.717Z,2.00
2023-01-02T05:28:39.414Z,2.00
2023-01-02T05:31:06.892Z,2.00
2023-01-02T05:33:35.992Z,2.10
2023-01-02T05:36:08.482Z,2.00
2023-01-02T05:38:37.012Z,2.10
2023-01-02T05:41:05.893Z,2.10
2023-01-02T05:43:35.652Z,2.00
2023-01-02T05:46:09.200Z,2.00
2023-01-02T05:48:37.117Z,2.00
2023-01-02T05:51:06.543Z,2.00
2023-01-02T05:53:34.672Z,2.00
2023-01-02T05:56:08.968Z,2.00
2023-01-02T05:58:39.286Z,2.00
2023-01-02T06:01:27.898Z,2.10
2023-01-02T06:03:58.131Z,2.10
2023-01-02T06:06:31.271Z,2.10
2023-01-02T06:09:00.145Z,2.10
2023-01-02T06:11:28.522Z,2.10
2023-01-02T06:13:56.804Z,2.10
2023-01-02T06:16:25.382Z,2.20
2023-01-02T06:18:53.455Z,2.20
2023-01-02T06:21:21.775Z,2.10
2023-01-02T06:23:55.028Z,2.00
2023-01-02T06:26:23.701Z,2.00
2023-01-02T06:28:54.794Z,1.90
2023-01-02T06:31:24.622Z,2.00
2023-01-02T06:34:00.643Z,1.90
2023-01-02T06:36:33.204Z,1.80
2023-01-02T06:39:00.883Z,1.80
2023-01-02T06:41:28.526Z,1.80
2023-01-02T06:43:56.227Z,1.80
2023-01-02T06:46:24.700Z,1.70
2023-01-02T06:48:52.583Z,1.70
2023-01-02T06:51:22.573Z,1.70
2023-01-02T06:53:50.836Z,1.70
2023-01-02T06:56:20.534Z,1.70
2023-01-02T06:58:48.704Z,1.80
2023-01-02T07:01:19.989Z,1.80
2023-01-02T07:03:48.029Z,1.80
2023-01-02T07:06:18.369Z,1.80
2023-01-02T07:08:46.864Z,1.90
2023-01-02T07:11:17.247Z,1.90
2023-01-02T07:13:46.716Z,1.80
2023-01-02T07:16:16.401Z,1.80
2023-01-02T07:18:44.278Z,1.80
2023-01-02T07:21:13.077Z,1.60
2023-01-02T07:23:41.568Z,1.60
2023-01-02T07:26:09.768Z,1.60
2023-01-02T07:28:38.610Z,1.40
2023-01-02T07:31:08.797Z,1.50
2023-01-02T07:33:36.584Z,1.50
2023-01-02T07:36:09.165Z,1.50
2023-01-02T07:38:38.300Z,1.40
2023-01-02T07:41:14.210Z,1.40
2023-01-02T07:43:42.350Z,1.40
2023-01-02T07:46:10.243Z,1.70
2023-01-02T07:48:37.776Z,1.70
2023-01-02T07:51:07.207Z,2.00
2023-01-02T07:53:35.272Z,2.30
2023-01-02T07:56:03.384Z,2.30
2023-01-02T07:58:31.606Z,2.30
2023-01-02T08:01:05.938Z,2.30
2023-01-02T08:03:33.889Z,2.30
2023-01-02T08:06:13.633Z,2.20
2023-01-02T08:08:42.019Z,2.20
2023-01-02T08:11:12.215Z,2.10
2023-01-02T08:13:40.698Z,2.10
2023-01-02T08:16:17.514Z,2.10
2023-01-02T08:18:46.975Z,2.10
2023-01-02T08:21:15.269Z,2.10
2023-01-02T08:23:43.027Z,2.10
2023-01-02T08:26:11.358Z,2.10
2023-01-02T08:28:40.636Z,2.20
2023-01-02T08:31:13.780Z,2.20
2023-01-02T08:33:41.966Z,2.30
2023-01-02T08:36:10.165Z,2.30
2023-01-02T08:38:37.729Z,2.30
2023-01-02T08:41:05.568Z,2.30
2023-01-02T08:43:35.009Z,2.30
2023-01-02T08:46:07.462Z,2.30
2023-01-02T08:48:35.618Z,2.30
2023-01-02T08:51:04.224Z,2.40
2023-01-02T08:53:31.811Z,2.30
2023-01-02T08:56:28.707Z,2.30
2023-01-02T08:58:58.486Z,2.20
2023-01-02T09:01:27.716Z,2.00
2023-01-02T09:03:56.139Z,2.00
2023-01-02T09:06:26.455Z,1.80
2023-01-02T09:08:56.716Z,1.70
2023-01-02T09:11:27.359Z,1.70
2023-01-02T09:13:56.477Z,1.70
2023-01-02T09:16:24.237Z,1.70
2023-01-02T09:18:52.538Z,1.70
2023-01-02T09:21:19.972Z,1.70
2023-01-02T09:23:47.703Z,1.70
2023-01-02T09:26:15.806Z,1.60
2023-01-02T09:28:43.256Z,1.60
2023-01-02T09:31:13.783Z,1.60
2023-01-02T09:33:43.133Z,1.50
2023-01-02T09:36:12.916Z,1.50
2023-01-02T09:38:40.663Z,1.50
2023-01-02T09:41:35.374Z,1.50
2023-01-02T09:44:26.887Z,1.50
2023-01-02T09:47:00.749Z,1.40
2023-01-02T09:49:31.325Z,1.50
2023-01-02T09:51:58.984Z,1.60
2023-01-02T12:47:40.277Z,5.80
2023-01-02T12:50:19.988Z,4.30
2023-01-02T12:53:05.889Z,4.10
2023-01-02T12:56:01.073Z,3.90
2023-01-02T12:58:37.347Z,3.90
2023-01-02T13:01:10.644Z,3.90
2023-01-02T13:03:58.359Z,3.90
2023-01-02T13:06:44.306Z,3.90
2023-01-02T13:09:28.491Z,3.90
2023-01-02T13:12:14.440Z,3.90
2023-01-02T13:14:47.320Z,3.80
2023-01-02T13:17:42.202Z,3.80
2023-01-02T13:20:12.605Z,3.80
2023-01-02T13:23:05.981Z,3.80
2023-01-02T13:25:36.492Z,3.80
2023-01-02T13:28:07.968Z,3.80
2023-01-02T13:30:35.583Z,3.80
2023-01-02T13:33:11.864Z,3.80
2023-01-02T13:35:39.771Z,3.90
2023-01-02T13:38:08.415Z,3.80
2023-01-02T13:40:36.427Z,3.80
2023-01-02T13:43:12.754Z,3.80
2023-01-02T13:45:50.090Z,3.80
2023-01-02T13:48:35.574Z,3.80
2023-01-02T13:51:07.461Z,3.80
2023-01-02T13:53:40.063Z,3.80
2023-01-02T13:56:16.685Z,3.80
2023-01-02T13:58:47.362Z,3.80
2023-01-02T14:01:21.370Z,3.70
2023-01-02T14:03:50.780Z,3.70
2023-01-02T14:06:32.067Z,3.70
2023-01-02T14:09:05.454Z,3.70
2023-01-02T14:11:56.040Z,3.70
2023-01-02T14:14:41.719Z,3.60
2023-01-02T14:17:33.907Z,3.70
2023-01-02T14:20:20.073Z,3.70
2023-01-02T14:23:09.494Z,3.70
2023-01-02T14:25:49.447Z,3.80
2023-01-02T14:28:29.130Z,3.70
2023-01-02T14:30:58.001Z,3.70
2023-01-02T14:33:34.274Z,3.80
2023-01-02T14:36:10.607Z,3.80
2023-01-02T14:38:50.917Z,3.70
2023-01-02T14:42:02.037Z,3.70
2023-01-02T14:44:31.551Z,3.70
2023-01-02T14:47:00.304Z,3.60
2023-01-02T14:49:28.261Z,3.60
2023-01-02T14:52:05.373Z,3.40
2023-01-02T14:54:56.046Z,3.40
2023-01-02T14:57:32.115Z,3.40
2023-01-02T15:00:03.943Z,3.40
2023-01-02T15:02:39.555Z,3.40
2023-01-02T15:05:26.009Z,3.30
2023-01-02T15:07:55.506Z,3.10
2023-01-02T15:10:24.397Z,3.10
2023-01-02T15:13:03.873Z,3.30
2023-01-02T15:15:33.250Z,3.20
2023-01-02T15:18:23.356Z,3.10
2023-01-02T15:20:53.789Z,3.10
2023-01-02T15:23:24.495Z,3.10
2023-01-02T15:25:52.763Z,3.00
2023-01-02T15:28:40.297Z,2.90
2023-01-02T15:31:26.758Z,2.90
2023-01-02T15:34:00.031Z,2.80
2023-01-02T15:36:42.535Z,2.80
2023-01-02T15:39:20.845Z,2.60
2023-01-02T15:41:55.081Z,2.50
2023-01-02T15:44:49.449Z,2.40
2023-01-02T15:47:23.904Z,2.30
2023-01-02T15:49:56.529Z,2.30
2023-01-02T15:52:32.218Z,2.20
2023-01-02T15:55:00.467Z,2.10
2023-01-02T15:57:34.361Z,2.10
2023-01-02T16:00:02.159Z,2.10
2023-01-02T16:02:44.912Z,2.10
2023-01-02T16:05:19.340Z,2.10
2023-01-02T16:07:55.923Z,2.10
2023-01-02T16:10:26.341Z,2.10
2023-01-02T16:13:03.485Z,2.00
2023-01-02T16:15:34.338Z,2.10
2023-01-02T16:18:02.753Z,2.10
2023-01-02T16:20:31.269Z,1.90
2023-01-02T16:23:04.053Z,2.00
2023-01-02T16:25:42.862Z,2.00
2023-01-02T16:28:36.121Z,1.80
2023-01-02T16:31:13.561Z,1.70
2023-01-02T16:33:42.169Z,1.70
2023-01-02T16:36:15.489Z,1.70
2023-01-02T16:38:59.476Z,1.60
2023-01-02T16:41:41.665Z,1.50
2023-01-02T16:44:14.843Z,1.60
2023-01-02T16:46:44.714Z,1.60
2023-01-02T16:49:16.363Z,1.50
2023-01-02T16:51:46.394Z,1.50
2023-01-02T16:54:15.476Z,1.50
2023-01-02T16:56:43.942Z,1.60
2023-01-02T16:59:11.982Z,1.50
2023-01-02T17:01:39.544Z,1.50
2023-01-02T17:04:08.091Z,1.60
2023-01-02T17:06:35.835Z,1.60
2023-01-02T17:09:03.470Z,1.70
2023-01-02T17:11:31.070Z,1.80
2023-01-02T17:14:01.070Z,1.80
2023-01-02T17:16:28.694Z,1.80
2023-01-02T17:18:56.208Z,1.70
2023-01-02T17:21:29.189Z,1.80
2023-01-02T17:24:00.144Z,1.70
2023-01-02T17:26:27.711Z,1.60
2023-01-02T17:28:55.205Z,1.50
2023-01-02T17:31:25.739Z,1.60
2023-01-02T17:33:53.645Z,1.70
2023-01-02T17:36:21.596Z,1.70
2023-01-02T17:38:49.123Z,1.70
2023-01-02T17:41:16.611Z,1.70
2023-01-02T17:44:01.809Z,1.70
2023-01-02T17:49:21.057Z,1.80
2023-01-02T17:51:48.741Z,1.70
2023-01-02T17:54:16.454Z,1.70
2023-01-02T17:56:44.293Z,1.60
2023-01-02T17:59:14.010Z,1.60
2023-01-02T18:01:41.620Z,1.60
2023-01-02T18:04:09.137Z,1.50
2023-01-02T18:06:36.723Z,1.60
2023-01-02T18:09:04.624Z,1.60
2023-01-02T18:11:32.344Z,1.30
2023-01-02T18:14:01.896Z,1.30
2023-01-02T18:16:33.999Z,1.30
2023-01-02T18:19:01.658Z,1.40
2023-01-02T18:21:32.105Z,1.30
2023-01-02T18:24:02.884Z,1.30
2023-01-02T18:26:31.598Z,1.40
2023-01-02T18:29:09.366Z,1.50
2023-01-02T18:31:42.913Z,1.60
2023-01-02T18:34:47.780Z,1.60
2023-01-02T18:37:23.260Z,1.70
2023-01-02T18:39:51.845Z,1.70
2023-01-02T18:42:24.341Z,1.70
2023-01-02T18:44:53.135Z,1.80
2023-01-02T18:47:26.143Z,1.80
2023-01-02T18:50:00.921Z,1.80
2023-01-02T18:52:33.651Z,1.80
2023-01-02T18:55:28.391Z,1.70
2023-01-02T18:58:09.387Z,1.80
2023-01-02T19:00:39.869Z,1.80
2023-01-02T19:03:07.830Z,1.80
2023-01-02T19:05:41.899Z,1.80
2023-01-02T19:08:11.246Z,1.70
2023-01-02T19:10:41.754Z,1.60
2023-01-02T19:13:21.551Z,1.50
2023-01-02T19:16:19.467Z,1.50
2023-01-02T19:18:53.943Z,1.30
2023-01-02T19:21:28.571Z,1.40
2023-01-02T19:23:58.655Z,1.30
2023-01-02T19:26:31.077Z,1.20
2023-01-02T19:29:10.611Z,1.10
2023-01-02T19:32:19.005Z,1.20
2023-01-02T19:34:50.981Z,1.20
2023-01-02T19:37:24.168Z,1.30
2023-01-02T19:39:54.076Z,1.20
2023-01-02T19:42:23.609Z,1.20
2023-01-02T19:45:01.339Z,1.10
2023-01-02T19:47:32.596Z,1.10
2023-01-02T19:50:01.111Z,1.10
2023-01-02T19:52:29.715Z,1.10
2023-01-02T19:54:58.331Z,1.10
2023-01-02T19:57:26.612Z,1.10
2023-01-02T19:59:59.068Z,1.10
2023-01-02T20:02:27.817Z,1.00
2023-01-02T20:04:55.699Z,1.00
2023-01-02T20:07:24.598Z,1.00
2023-01-02T20:09:53.288Z,1.00
2023-01-02T20:12:30.205Z,1.00
2023-01-02T20:15:09.257Z,1.20
2023-01-02T20:17:38.006Z,1.20
2023-01-02T20:20:08.500Z,1.30
2023-01-02T20:22:36.532Z,1.40
2023-01-02T20:25:04.643Z,1.40
2023-01-02T20:27:32.200Z,1.30
2023-01-02T20:29:59.705Z,1.50
2023-01-02T20:32:27.330Z,1.40
2023-01-02T20:34:54.779Z,1.50
2023-01-02T20:37:22.403Z,1.50
2023-01-02T20:39:51.538Z,1.50
2023-01-02T20:42:20.378Z,1.40
2023-01-02T20:44:48.827Z,1.40
2023-01-02T20:47:16.942Z,1.40
2023-01-02T20:49:44.535Z,1.40
2023-01-02T20:52:12.093Z,1.40
2023-01-02T20:54:39.800Z,1.30
2023-01-02T20:57:07.360Z,1.40
2023-01-02T20:59:34.944Z,1.40
2023-01-02T21:02:02.576Z,1.40
2023-01-02T21:04:36.279Z,1.50
2023-01-02T21:07:05.586Z,1.50
2023-01-02T21:09:33.612Z,1.40
2023-01-02T21:12:01.680Z,1.30
2023-01-02T21:14:35.470Z,1.40
2023-01-02T21:17:05.212Z,1.40
2023-01-02T21:19:32.694Z,1.40
2023-01-02T21:22:00.726Z,1.30
2023-01-02T21:24:28.163Z,1.20
2023-01-02T21:26:55.709Z,1.20
2023-01-02T21:29:23.172Z,1.10
2023-01-02T21:31:50.764Z,1.20
2023-01-02T21:34:18.360Z,1.10
2023-01-02T21:36:45.874Z,1.10
2023-01-02T21:39:13.377Z,1.10
2023-01-02T21:42:00.463Z,1.00
2023-01-02T21:44:28.213Z,1.00
2023-01-02T21:46:58.116Z,0.90
2023-01-02T21:49:26.748Z,1.00
2023-01-02T21:51:54.488Z,1.10
2023-01-02T21:54:47.438Z,1.00
2023-01-02T21:57:14.996Z,1.10
2023-01-02T21:59:42.549Z,1.30
2023-01-02T22:02:10.173Z,1.40
2023-01-02T22:04:37.840Z,1.50
2023-01-02T22:07:31.216Z,1.50
2023-01-02T22:09:53.108Z,1.70
2023-01-02T22:12:20.535Z,1.80
2023-01-02T22:14:48.052Z,1.80
2023-01-02T22:17:15.788Z,1.90
2023-01-02T22:19:43.604Z,1.80
2023-01-02T22:22:11.397Z,1.80
2023-01-02T22:24:44.190Z,1.90
2023-01-02T22:27:14.693Z,1.80
2023-01-02T22:30:19.573Z,1.80
2023-01-02T22:32:33.582Z,1.80
2023-01-02T22:35:03.622Z,1.80
2023-01-02T22:37:31.404Z,1.70
2023-01-02T22:40:01.937Z,1.80
2023-01-02T22:43:07.437Z,1.90
2023-01-02T22:45:48.130Z,1.90
2023-01-02T22:48:37.259Z,1.90
2023-01-02T22:51:07.624Z,2.00
2023-01-02T22:53:37.260Z,1.90
2023-01-02T22:56:19.589Z,2.00
2023-01-02T22:58:48.204Z,2.00
2023-01-02T23:01:22.916Z,2.00
2023-01-02T23:03:50.627Z,1.90
2023-01-02T23:06:22.176Z,2.00
2023-01-02T23:08:54.031Z,2.00
2023-01-02T23:11:22.587Z,1.90
2023-01-02T23:13:56.388Z,2.00
2023-01-02T23:16:43.080Z,2.00
2023-01-02T23:19:19.051Z,2.00
2023-01-02T23:21:52.149Z,2.10
2023-01-02T23:24:23.495Z,2.10
2023-01-02T23:26:53.587Z,2.20
2023-01-02T23:29:22.854Z,2.10
2023-01-02T23:31:51.547Z,2.20
2023-01-02T23:34:23.267Z,2.20
2023-01-02T23:36:52.419Z,2.20
2023-01-02T23:39:22.697Z,2.20
2023-01-02T23:41:51.452Z,2.20
2023-01-02T23:44:21.573Z,2.20
2023-01-02T23:46:49.805Z,2.20
2023-01-02T23:49:17.584Z,2.20
2023-01-02T23:51:45.640Z,2.10
2023-01-02T23:54:14.882Z,2.20
2023-01-02T23:56:45.074Z,2.20
2023-01-02T23:59:16.796Z,2.10
